createdAt,value
2022-12-02T00:01:43.575Z,4.73
2022-12-02T00:04:26.376Z,4.73
2022-12-02T00:06:54.494Z,4.73
2022-12-02T00:09:29.895Z,4.66
2022-12-02T00:11:57.058Z,4.71
2022-12-02T00:14:29.229Z,4.71
2022-12-02T00:16:56.711Z,4.71
2022-12-02T00:19:23.608Z,4.70
2022-12-02T00:21:51.212Z,4.69
2022-12-02T00:24:18.800Z,4.65
2022-12-02T00:26:45.718Z,4.68
2022-12-02T00:29:12.578Z,4.68
2022-12-02T00:31:39.091Z,4.65
2022-12-02T00:34:05.861Z,4.67
2022-12-02T00:36:32.655Z,4.65
2022-12-02T00:38:59.129Z,4.64
2022-12-02T00:41:25.656Z,4.64
2022-12-02T00:44:10.723Z,4.65
2022-12-02T00:46:37.841Z,4.63
2022-12-02T00:49:08.609Z,4.63
2022-12-02T00:51:37.106Z,4.64
2022-12-02T00:54:04.978Z,4.56
2022-12-02T00:56:32.467Z,4.61
2022-12-02T00:58:59.179Z,4.55
2022-12-02T01:01:26.815Z,4.57
2022-12-02T01:03:53.338Z,4.56
2022-12-02T01:06:19.804Z,4.57
2022-12-02T01:08:47.676Z,4.59
2022-12-02T01:11:14.788Z,4.59
2022-12-02T01:13:41.874Z,4.53
2022-12-02T01:16:08.378Z,4.57
2022-12-02T01:18:35.274Z,4.57
2022-12-02T01:21:02.109Z,4.56
2022-12-02T01:23:28.827Z,4.57
2022-12-02T01:25:55.241Z,4.51
2022-12-02T01:28:21.701Z,4.56
2022-12-02T01:30:48.236Z,4.47
2022-12-02T01:33:14.712Z,4.55
2022-12-02T01:35:41.211Z,4.51
2022-12-02T01:38:07.635Z,4.54
2022-12-02T01:40:34.315Z,4.49
2022-12-02T01:43:00.722Z,4.49
2022-12-02T01:45:31.223Z,4.50
2022-12-02T01:47:59.948Z,4.49
2022-12-02T01:50:26.762Z,4.50
2022-12-02T01:52:57.910Z,4.48
2022-12-02T01:55:26.977Z,4.33
2022-12-02T01:57:53.739Z,4.45
2022-12-02T02:00:21.067Z,4.48
2022-12-02T02:02:47.709Z,4.48
2022-12-02T02:05:21.461Z,4.48
2022-12-02T02:07:50.909Z,4.46
2022-12-02T02:10:18.166Z,4.48
2022-12-02T02:12:46.280Z,4.46
2022-12-02T02:15:15.228Z,4.43
2022-12-02T02:17:41.894Z,4.46
2022-12-02T02:20:13.139Z,4.46
2022-12-02T02:22:50.270Z,4.44
2022-12-02T02:25:20.510Z,4.46
2022-12-02T02:27:55.359Z,4.42
2022-12-02T02:30:23.085Z,4.44
2022-12-02T02:32:51.899Z,4.41
2022-12-02T02:35:20.689Z,4.38
2022-12-02T02:37:50.576Z,4.36
2022-12-02T02:40:18.756Z,4.43
2022-12-02T02:42:50.685Z,4.35
2022-12-02T02:45:19.120Z,4.41
2022-12-02T02:47:46.344Z,4.40
2022-12-02T02:50:13.053Z,4.40
2022-12-02T02:52:40.105Z,4.38
2022-12-02T02:55:07.651Z,4.37
2022-12-02T02:57:36.590Z,4.40
2022-12-02T03:00:04.680Z,4.40
2022-12-02T03:02:32.588Z,4.41
2022-12-02T03:04:59.355Z,4.40
2022-12-02T03:07:25.977Z,4.40
2022-12-02T03:09:52.593Z,4.36
2022-12-02T03:12:19.461Z,4.36
2022-12-02T03:14:46.120Z,4.37
2022-12-02T03:17:13.463Z,4.34
2022-12-02T03:19:41.067Z,4.37
2022-12-02T03:22:08.702Z,4.36
2022-12-02T03:24:35.784Z,4.37
2022-12-02T03:27:02.522Z,4.33
2022-12-02T03:29:29.998Z,4.36
2022-12-02T03:31:59.067Z,4.32
2022-12-02T03:34:25.940Z,4.32
2022-12-02T03:36:53.117Z,4.32
2022-12-02T03:39:20.190Z,4.34
2022-12-02T03:41:47.611Z,4.35
2022-12-02T03:44:15.998Z,4.35
2022-12-02T03:46:44.000Z,4.34
2022-12-02T03:49:12.163Z,4.31
2022-12-02T03:51:38.623Z,4.32
2022-12-02T03:54:05.167Z,4.34
2022-12-02T03:56:37.043Z,4.31
2022-12-02T03:59:03.473Z,4.30
2022-12-02T04:01:29.971Z,4.33
2022-12-02T04:03:56.457Z,4.31
2022-12-02T04:06:22.981Z,4.32
2022-12-02T04:08:49.386Z,4.27
2022-12-02T04:11:16.467Z,4.33
2022-12-02T04:13:43.055Z,4.31
2022-12-02T04:16:09.669Z,4.31
2022-12-02T04:18:36.193Z,4.27
2022-12-02T04:21:03.622Z,4.31
2022-12-02T04:23:30.038Z,4.29
2022-12-02T04:25:56.444Z,4.32
2022-12-02T04:28:22.870Z,4.27
2022-12-02T04:30:49.544Z,4.30
2022-12-02T04:33:16.036Z,4.29
2022-12-02T04:35:42.442Z,4.27
2022-12-02T04:38:12.194Z,4.29
2022-12-02T04:40:39.447Z,4.31
2022-12-02T04:43:05.850Z,4.30
2022-12-02T04:45:33.005Z,4.29
2022-12-02T04:47:59.609Z,4.31
2022-12-02T04:50:26.030Z,4.31
2022-12-02T04:52:52.409Z,4.27
2022-12-02T04:55:18.885Z,4.23
2022-12-02T04:57:45.281Z,4.29
2022-12-02T05:00:12.396Z,4.25
2022-12-02T05:02:38.837Z,4.28
2022-12-02T05:05:05.603Z,4.30
2022-12-02T05:07:32.119Z,4.29
2022-12-02T05:09:58.553Z,4.29
2022-12-02T05:12:25.174Z,4.29
2022-12-02T05:14:52.523Z,4.29
2022-12-02T05:17:19.271Z,4.24
2022-12-02T05:19:45.967Z,4.27
2022-12-02T05:22:12.489Z,4.26
2022-12-02T05:24:38.881Z,4.27
2022-12-02T05:27:05.309Z,4.28
2022-12-02T05:29:31.824Z,4.24
2022-12-02T05:31:58.253Z,4.27
2022-12-02T05:34:24.708Z,4.26
2022-12-02T05:36:51.315Z,4.28
2022-12-02T05:39:17.701Z,4.28
2022-12-02T05:41:44.512Z,4.28
2022-12-02T05:44:23.275Z,4.26
2022-12-02T05:46:50.125Z,4.27
2022-12-02T05:49:19.962Z,4.26
2022-12-02T05:51:56.480Z,4.26
2022-12-02T05:54:23.287Z,4.25
2022-12-02T05:56:49.793Z,4.21
2022-12-02T05:59:18.599Z,4.27
2022-12-02T06:01:51.050Z,4.22
2022-12-02T06:04:24.490Z,4.25
2022-12-02T06:06:55.619Z,4.26
2022-12-02T06:09:30.498Z,4.24
2022-12-02T06:12:00.113Z,4.22
2022-12-02T06:14:31.890Z,4.23
2022-12-02T06:17:01.664Z,4.25
2022-12-02T06:19:37.505Z,4.24
2022-12-02T06:22:05.925Z,4.24
2022-12-02T06:24:34.476Z,4.24
2022-12-02T06:27:02.628Z,4.25
2022-12-02T06:29:31.492Z,4.26
2022-12-02T06:31:59.471Z,4.23
2022-12-02T06:34:35.152Z,4.23
2022-12-02T06:37:13.349Z,4.22
2022-12-02T06:39:58.173Z,4.22
2022-12-02T06:42:38.660Z,4.20
2022-12-02T06:45:27.510Z,4.21
2022-12-02T06:48:05.140Z,4.23
2022-12-02T06:50:42.974Z,4.22
2022-12-02T06:53:22.086Z,4.24
2022-12-02T06:55:50.437Z,4.20
2022-12-02T06:58:37.187Z,4.22
2022-12-02T07:01:15.786Z,4.22
2022-12-02T07:04:03.777Z,4.20
2022-12-02T07:06:31.372Z,4.23
2022-12-02T07:09:02.071Z,4.22
2022-12-02T07:11:49.979Z,4.23
2022-12-02T07:14:29.626Z,4.17
2022-12-02T07:17:13.387Z,4.22
2022-12-02T07:19:42.695Z,4.20
2022-12-02T07:22:21.450Z,4.21
2022-12-02T07:25:09.277Z,4.22
2022-12-02T07:27:42.082Z,4.22
2022-12-02T07:30:24.603Z,4.22
2022-12-02T07:32:51.420Z,4.21
2022-12-02T07:35:18.683Z,4.22
2022-12-02T07:37:45.451Z,4.24
2022-12-02T07:40:12.778Z,4.24
2022-12-02T07:42:39.523Z,4.19
2022-12-02T07:45:06.636Z,4.21
2022-12-02T07:47:34.262Z,4.20
2022-12-02T07:50:01.071Z,4.25
2022-12-02T07:52:27.848Z,4.24
2022-12-02T07:54:54.727Z,4.26
2022-12-02T07:57:21.932Z,4.25
2022-12-02T07:59:48.535Z,4.26
2022-12-02T08:02:15.105Z,4.25
2022-12-02T08:04:41.574Z,4.26
2022-12-02T08:07:08.102Z,4.26
2022-12-02T08:09:34.534Z,4.20
2022-12-02T08:12:01.070Z,4.25
2022-12-02T08:14:27.479Z,4.22
2022-12-02T08:16:53.917Z,4.26
2022-12-02T08:19:20.410Z,4.22
2022-12-02T08:21:46.804Z,4.27
2022-12-02T08:24:13.269Z,4.23
2022-12-02T08:26:39.736Z,4.21
2022-12-02T08:29:06.112Z,4.26
2022-12-02T08:31:32.575Z,4.26
2022-12-02T08:34:03.750Z,4.24
2022-12-02T08:36:34.204Z,4.25
2022-12-02T08:39:05.374Z,4.28
2022-12-02T08:41:36.213Z,4.30
2022-12-02T08:44:02.963Z,4.28
2022-12-02T08:46:29.847Z,4.29
2022-12-02T08:48:56.498Z,4.31
2022-12-02T08:51:22.905Z,4.29
2022-12-02T08:53:49.399Z,4.30
2022-12-02T08:56:16.227Z,4.32
2022-12-02T08:58:42.628Z,4.32
2022-12-02T09:01:09.163Z,4.29
2022-12-02T09:03:35.706Z,4.32
2022-12-02T09:06:02.139Z,4.31
2022-12-02T09:08:28.577Z,4.33
2022-12-02T09:10:55.219Z,4.30
2022-12-02T09:13:21.870Z,4.28
2022-12-02T09:15:48.388Z,4.32
2022-12-02T09:18:15.551Z,4.33
2022-12-02T09:20:42.411Z,4.31
2022-12-02T09:23:09.048Z,4.34
2022-12-02T09:25:35.548Z,4.31
2022-12-02T09:28:02.033Z,4.34
2022-12-02T09:30:28.543Z,4.32
2022-12-02T09:32:55.266Z,4.37
2022-12-02T09:35:21.989Z,4.39
2022-12-02T09:37:48.838Z,4.39
2022-12-02T09:40:16.415Z,4.40
2022-12-02T09:42:44.682Z,4.40
2022-12-02T09:45:12.571Z,4.42
2022-12-02T09:47:40.045Z,4.43
2022-12-02T09:50:07.389Z,4.44
2022-12-02T09:52:33.799Z,4.44
2022-12-02T09:55:02.066Z,4.45
2022-12-02T09:57:33.030Z,4.46
2022-12-02T10:00:06.102Z,4.47
2022-12-02T10:02:44.905Z,4.46
2022-12-02T10:05:21.915Z,4.47
2022-12-02T10:07:50.657Z,4.46
2022-12-02T10:10:20.777Z,4.48
2022-12-02T10:12:48.169Z,4.49
2022-12-02T10:15:20.048Z,4.49
2022-12-02T10:17:46.891Z,4.48
2022-12-02T10:20:20.125Z,4.49
2022-12-02T10:23:10.098Z,4.49
2022-12-02T10:25:37.962Z,4.51
2022-12-02T10:28:05.476Z,4.51
2022-12-02T10:30:32.591Z,4.50
2022-12-02T10:33:04.480Z,4.52
2022-12-02T10:35:47.682Z,4.53
2022-12-02T10:38:44.221Z,4.54
2022-12-02T10:41:31.148Z,4.53
2022-12-02T10:44:12.436Z,4.53
2022-12-02T10:46:38.896Z,4.55
2022-12-02T10:49:17.015Z,4.54
2022-12-02T10:51:43.448Z,4.56
2022-12-02T10:54:23.006Z,4.51
2022-12-02T10:56:49.424Z,4.55
2022-12-02T10:59:16.451Z,4.55
2022-12-02T11:01:43.965Z,4.52
2022-12-02T11:04:15.363Z,4.56
2022-12-02T11:06:45.817Z,4.57
2022-12-02T11:09:39.506Z,4.57
2022-12-02T11:12:42.081Z,4.57
2022-12-02T11:15:39.101Z,4.55
2022-12-02T11:18:08.051Z,4.54
2022-12-02T11:20:45.175Z,4.57
2022-12-02T11:23:25.028Z,4.56
2022-12-02T11:25:56.626Z,4.57
2022-12-02T11:28:28.848Z,4.58
2022-12-02T11:31:25.910Z,4.57
2022-12-02T11:33:56.415Z,4.57
2022-12-02T11:36:32.536Z,4.58
2022-12-02T11:39:09.721Z,4.57
2022-12-02T11:41:48.256Z,4.59
2022-12-02T11:44:26.902Z,4.53
2022-12-02T11:46:58.959Z,4.56
2022-12-02T11:49:37.199Z,4.60
2022-12-02T11:52:09.267Z,4.62
2022-12-02T11:54:38.316Z,4.62
2022-12-02T11:57:05.765Z,4.59
2022-12-02T11:59:35.322Z,4.59
2022-12-02T12:02:20.815Z,4.57
2022-12-02T12:05:03.446Z,4.61
2022-12-02T12:07:42.239Z,4.61
2022-12-02T12:10:34.433Z,4.60
2022-12-02T12:13:20.303Z,4.59
2022-12-02T12:15:50.925Z,4.63
2022-12-02T12:18:36.906Z,4.61
2022-12-02T12:21:03.830Z,4.59
2022-12-02T12:23:32.759Z,4.61
2022-12-02T12:25:59.354Z,4.65
2022-12-02T12:28:34.400Z,4.62
2022-12-02T12:31:03.123Z,4.63
2022-12-02T12:33:30.004Z,4.61
2022-12-02T12:35:58.316Z,4.65
2022-12-02T12:38:30.757Z,4.64
2022-12-02T12:40:58.127Z,4.65
2022-12-02T12:43:24.916Z,4.66
2022-12-02T12:45:51.741Z,4.60
2022-12-02T12:48:18.300Z,4.63
2022-12-02T12:50:44.819Z,4.66
2022-12-02T12:53:11.233Z,4.65
2022-12-02T12:55:37.650Z,4.66
2022-12-02T12:58:04.126Z,4.61
2022-12-02T13:00:30.533Z,4.67
2022-12-02T13:02:57.422Z,4.67
2022-12-02T13:05:24.012Z,4.67
2022-12-02T13:07:50.504Z,4.68
2022-12-02T13:10:18.363Z,4.66
2022-12-02T13:12:44.905Z,4.67
2022-12-02T13:15:11.402Z,4.65
2022-12-02T13:17:37.844Z,4.67
2022-12-02T13:20:05.804Z,4.66
2022-12-02T13:22:32.234Z,4.68
2022-12-02T16:03:48.179Z,4.34
2022-12-02T16:06:14.674Z,4.37
2022-12-02T16:08:41.227Z,4.37
2022-12-02T16:11:08.074Z,4.40
2022-12-02T16:13:35.867Z,4.40
2022-12-02T16:16:02.369Z,4.42
2022-12-02T16:18:28.980Z,4.41
2022-12-02T16:24:53.817Z,4.42
2022-12-02T16:27:20.397Z,4.40
2022-12-02T16:29:46.870Z,4.43
2022-12-02T16:32:18.578Z,4.40
2022-12-02T16:34:47.001Z,4.44
2022-12-02T16:37:17.345Z,4.45
2022-12-02T16:39:43.896Z,4.43
2022-12-02T16:42:10.367Z,4.46
2022-12-02T16:44:36.786Z,4.43
2022-12-02T16:47:04.261Z,4.44
2022-12-02T16:49:30.839Z,4.47
2022-12-02T16:51:58.492Z,4.48
2022-12-02T16:54:25.306Z,4.47
2022-12-02T16:56:55.963Z,4.48
2022-12-02T16:59:23.786Z,4.48
2022-12-02T17:01:50.622Z,4.49
2022-12-02T17:04:17.242Z,4.46
2022-12-02T17:06:43.689Z,4.49
2022-12-02T17:09:10.108Z,4.47
2022-12-02T17:11:36.541Z,4.48
2022-12-02T17:14:03.457Z,4.49
2022-12-02T17:16:30.116Z,4.47
2022-12-02T17:18:56.693Z,4.44
2022-12-02T17:21:23.316Z,4.45
2022-12-02T17:23:49.780Z,4.47
2022-12-02T17:26:16.305Z,4.46
2022-12-02T17:28:42.786Z,4.44
2022-12-02T17:31:10.580Z,4.46
2022-12-02T17:33:37.381Z,4.46
2022-12-02T17:36:04.200Z,4.46
2022-12-02T17:38:30.596Z,4.45
2022-12-02T17:41:12.321Z,4.44
2022-12-02T17:43:39.911Z,4.43
2022-12-02T17:46:06.878Z,4.42
2022-12-02T17:48:33.578Z,4.41
2022-12-02T17:51:00.080Z,4.41
2022-12-02T17:53:27.381Z,4.41
2022-12-02T17:55:53.855Z,4.38
2022-12-02T17:58:20.397Z,4.38
2022-12-02T18:00:46.883Z,4.32
2022-12-02T18:03:13.362Z,4.37
2022-12-02T18:05:39.940Z,4.36
2022-12-02T18:08:06.461Z,4.34
2022-12-02T18:10:33.502Z,4.36
2022-12-02T18:12:59.893Z,4.35
2022-12-02T18:15:26.377Z,4.31
2022-12-02T18:17:52.810Z,4.32
2022-12-02T18:20:19.279Z,4.33
2022-12-02T18:22:45.914Z,4.31
2022-12-02T18:25:12.817Z,4.32
2022-12-02T18:27:39.439Z,4.32
2022-12-02T18:30:08.152Z,4.33
2022-12-02T18:32:36.575Z,4.31
2022-12-02T18:35:03.452Z,4.29
2022-12-02T18:37:29.876Z,4.31
2022-12-02T18:39:56.316Z,4.28
2022-12-02T18:42:22.748Z,4.31
2022-12-02T18:44:49.251Z,4.31
2022-12-02T18:47:15.723Z,4.30
2022-12-02T18:49:42.976Z,4.30
2022-12-02T18:52:10.014Z,4.26
2022-12-02T18:54:36.773Z,4.30
2022-12-02T18:57:03.786Z,4.28
2022-12-02T18:59:30.237Z,4.29
2022-12-02T19:01:56.964Z,4.30
2022-12-02T19:04:23.530Z,4.30
2022-12-02T19:06:49.982Z,4.31
2022-12-02T19:09:16.401Z,4.27
2022-12-02T19:11:42.834Z,4.29
2022-12-02T19:14:09.274Z,4.28
2022-12-02T19:16:35.904Z,4.29
2022-12-02T19:19:02.449Z,4.31
2022-12-02T19:21:29.259Z,4.31
2022-12-02T19:23:55.776Z,4.27
2022-12-02T19:26:23.157Z,4.31
2022-12-02T19:28:49.617Z,4.31
2022-12-02T19:31:16.146Z,4.30
2022-12-02T19:33:42.749Z,4.30
2022-12-02T19:36:09.240Z,4.32
2022-12-02T19:38:35.721Z,4.30
2022-12-02T19:41:02.213Z,4.33
2022-12-02T19:43:33.923Z,4.34
2022-12-02T19:46:02.079Z,4.33
2022-12-02T19:48:28.552Z,4.34
2022-12-02T19:50:55.690Z,4.36
2022-12-02T19:53:22.137Z,4.34
2022-12-02T19:55:48.644Z,4.34
2022-12-02T19:58:15.179Z,4.32
2022-12-02T20:00:41.610Z,4.34
2022-12-02T20:03:08.285Z,4.35
2022-12-02T20:05:34.816Z,4.33
2022-12-02T20:08:01.353Z,4.34
2022-12-02T20:10:27.978Z,4.35
2022-12-02T20:12:54.389Z,4.36
2022-12-02T20:15:20.768Z,4.37
2022-12-02T20:17:47.241Z,4.35
2022-12-02T20:20:15.089Z,4.36
2022-12-02T20:22:42.219Z,4.38
2022-12-02T20:25:10.015Z,4.39
2022-12-02T20:27:36.894Z,4.40
2022-12-02T20:30:05.400Z,4.38
2022-12-02T20:32:33.373Z,4.38
2022-12-02T20:35:00.309Z,4.40
2022-12-02T20:37:26.740Z,4.41
2022-12-02T20:39:53.440Z,4.42
2022-12-02T20:42:19.825Z,4.43
2022-12-02T20:44:52.186Z,4.41
2022-12-02T20:47:19.723Z,4.43
2022-12-02T20:49:46.340Z,4.42
2022-12-02T20:52:12.758Z,4.43
2022-12-02T20:58:12.039Z,4.41
2022-12-02T21:00:38.521Z,4.43
2022-12-02T21:03:05.022Z,4.42
2022-12-02T21:05:33.463Z,4.44
2022-12-02T21:08:00.150Z,4.38
2022-12-02T21:10:26.649Z,4.43
2022-12-02T21:12:57.431Z,4.45
2022-12-02T21:15:32.930Z,4.44
2022-12-02T21:17:59.404Z,4.43
2022-12-02T21:20:26.137Z,4.43
2022-12-02T21:22:53.498Z,4.45
2022-12-02T21:25:20.002Z,4.43
2022-12-02T21:27:48.785Z,4.46
2022-12-02T21:30:15.630Z,4.46
2022-12-02T21:32:42.141Z,4.47
2022-12-02T21:35:10.130Z,4.47
2022-12-02T21:37:37.170Z,4.47
2022-12-02T21:40:04.911Z,4.45
2022-12-02T21:42:31.439Z,4.47
2022-12-02T21:44:58.040Z,4.47
2022-12-02T21:47:24.464Z,4.48
2022-12-02T21:49:50.957Z,4.47
2022-12-02T21:52:17.658Z,4.46
2022-12-02T21:54:44.287Z,4.46
2022-12-02T21:57:10.733Z,4.48
2022-12-02T21:59:37.170Z,4.46
2022-12-02T22:02:03.841Z,4.48
2022-12-02T22:04:31.204Z,4.45
2022-12-02T22:07:18.768Z,4.48
2022-12-02T22:09:45.984Z,4.47
2022-12-02T22:12:12.614Z,4.47
2022-12-02T22:14:39.219Z,4.48
2022-12-02T22:17:05.782Z,4.46
2022-12-02T22:19:32.392Z,4.48
2022-12-02T22:21:58.869Z,4.46
2022-12-02T22:24:25.475Z,4.46
2022-12-02T22:26:52.144Z,4.46
2022-12-02T22:29:18.638Z,4.45
2022-12-02T22:31:46.218Z,4.46
2022-12-02T22:34:12.756Z,4.45
2022-12-02T22:36:39.269Z,4.44
2022-12-02T22:39:06.307Z,4.45
2022-12-02T22:41:33.186Z,4.46
2022-12-02T22:43:59.822Z,4.45
2022-12-02T22:46:26.427Z,4.46
2022-12-02T22:48:53.237Z,4.44
2022-12-02T22:51:19.839Z,4.46
2022-12-02T22:53:46.395Z,4.45
2022-12-02T22:56:13.080Z,4.45
2022-12-02T22:58:39.653Z,4.45
2022-12-02T23:01:06.465Z,4.45
2022-12-02T23:03:33.256Z,4.46
2022-12-02T23:05:59.909Z,4.43
2022-12-02T23:08:26.682Z,4.44
2022-12-02T23:10:53.371Z,4.43
2022-12-02T23:13:20.036Z,4.43
2022-12-02T23:15:46.582Z,4.40
2022-12-02T23:18:13.234Z,4.40
2022-12-02T23:20:39.954Z,4.38
2022-12-02T23:23:06.550Z,4.40
2022-12-02T23:25:34.439Z,4.40
2022-12-02T23:28:00.954Z,4.37
2022-12-02T23:30:29.562Z,4.39
2022-12-02T23:32:57.516Z,4.39
2022-12-02T23:35:24.756Z,4.40
2022-12-02T23:37:51.540Z,4.37
2022-12-02T23:40:18.521Z,4.38
2022-12-02T23:42:45.059Z,4.37
2022-12-02T23:45:12.012Z,4.36
2022-12-02T23:47:38.611Z,4.36
2022-12-02T23:50:07.227Z,4.33
2022-12-02T23:52:33.761Z,4.34
2022-12-02T23:55:00.453Z,4.31
2022-12-02T23:57:27.012Z,4.33
2022-12-02T23:59:53.571Z,4.30
